This is the latest recevied weather packets stored in our database for station/object KN6ETB-1. If no packets are shown the sender has not sent any weather packets the latest 1 day(s).
| Time | Temp. | Humidity | Pressure | Rain* | Wind** | Luminosity | Snow |
|---|---|---|---|---|---|---|---|
| 1778021657 | 18.33° C | 73% | 1012.6 hPa | 0 mm | 1.79 m/s, 211° | 135 W/m² | - |
| 1778021352 | 18.33° C | 73% | 1012.4 hPa | 0 mm | 1.79 m/s, 232° | 157 W/m² | - |
| 1778021050 | 18.33° C | 73% | 1012.4 hPa | 0 mm | 1.79 m/s, 199° | 194 W/m² | - |
| 1778020747 | 18.89° C | 71% | 1012.5 hPa | 0 mm | 1.34 m/s, 201° | 193 W/m² | - |
| 1778020444 | 18.89° C | 72% | 1012.5 hPa | 0 mm | 0.89 m/s, 187° | 180 W/m² | - |
| 1778020139 | 18.89° C | 71% | 1012.5 hPa | 0 mm | 1.79 m/s, 172° | 169 W/m² | - |
| 1778019836 | 18.89° C | 71% | 1012.5 hPa | 0 mm | 1.34 m/s, 247° | 160 W/m² | - |
| 1778019533 | 18.89° C | 71% | 1012.7 hPa | 0 mm | 0.89 m/s, 204° | 176 W/m² | - |
| 1778019230 | 18.33° C | 71% | 1012.7 hPa | 0 mm | 1.34 m/s, 105° | 300 W/m² | - |
| 1778018927 | 18.33° C | 72% | 1012.9 hPa | 0 mm | 1.34 m/s, 157° | 285 W/m² | - |
| 1778018624 | 18.89° C | 70% | 1012.8 hPa | 0 mm | 1.79 m/s, 158° | 267 W/m² | - |
| 1778018321 | 18.33° C | 72% | 1012.8 hPa | 0 mm | 1.34 m/s, 192° | 313 W/m² | - |
| 1778018019 | 18.33° C | 72% | 1012.8 hPa | 0 mm | 0.89 m/s, 161° | 329 W/m² | - |
| 1778017717 | 18.33° C | 73% | 1012.8 hPa | 0 mm | 1.79 m/s, 204° | 319 W/m² | - |
| 1778017414 | 18.33° C | 74% | 1012.7 hPa | 0 mm | 1.34 m/s, 207° | 319 W/m² | - |
| 1778017111 | 18.89° C | 72% | 1012.9 hPa | 0 mm | 1.79 m/s, 200° | 260 W/m² | - |
| 1778016809 | 18.33° C | 75% | 1012.9 hPa | 0 mm | 1.79 m/s, 203° | 228 W/m² | - |
| 1778016505 | 17.78° C | 75% | 1012.9 hPa | 0 mm | 1.34 m/s, 252° | 191 W/m² | - |
| 1778016202 | 18.33° C | 74% | 1012.8 hPa | 0 mm | 1.79 m/s, 181° | 150 W/m² | - |
| 1778015898 | 18.33° C | 71% | 1012.9 hPa | 0 mm | 0.89 m/s, 219° | 130 W/m² | - |
| 1778015596 | 18.33° C | 71% | 1012.9 hPa | 0 mm | 0 m/s | 168 W/m² | - |
| 1778015292 | 19.44° C | 70% | 1012.7 hPa | 0 mm | 1.34 m/s, 342° | 251 W/m² | - |
| 1778014989 | 18.33° C | 71% | 1012.9 hPa | 0 mm | 0.89 m/s, 184° | 354 W/m² | - |
| 1778014686 | 18.33° C | 70% | 1012.8 hPa | 0 mm | 0.89 m/s, 318° | 498 W/m² | - |
| 1778014385 | 18.33° C | 69% | 1013.1 hPa | 0 mm | 1.79 m/s, 328° | 316 W/m² | - |
* Rain latest hour (hover to see other rain measurements)
** Current wind speed in m/s (hover to see current wind gust speed)